Time;durP1;ratioP1;P1;durP2;ratioP2;P2;SDS_P1;SDS_P2;PMS_P1;PMS_P2;Temp;Humidity;BMP_temperature;BMP_pressure;BME280_temperature;BME280_humidity;BME280_pressure;Samples;Min_cycle;Max_cycle;Signal;HPM_P1;HPM_P2
2023/05/24 00:01:47;;;;;;;14.10;4.85;;;;;;;8.76;83.45;101576.03;4978241;28;20654;-80
2023/05/24 00:04:13;;;;;;;16.00;4.97;;;;;;;8.69;83.75;101575.69;4978252;28;20057;-79
2023/05/24 00:06:41;;;;;;;17.33;5.07;;;;;;;8.67;83.92;101582.81;4984782;28;20054;-78
2023/05/24 00:09:08;;;;;;;17.67;4.93;;;;;;;8.67;83.81;101584.56;4997093;28;20115;-80
2023/05/24 00:11:36;;;;;;;14.70;4.70;;;;;;;8.68;83.89;101581.03;4990864;28;20039;-80
2023/05/24 00:14:02;;;;;;;10.63;4.18;;;;;;;8.65;83.84;101582.91;4994984;28;20038;-80
2023/05/24 00:16:29;;;;;;;11.50;5.10;;;;;;;8.70;83.70;101585.16;4995242;28;20046;-80
2023/05/24 00:18:57;;;;;;;15.02;5.47;;;;;;;8.63;83.61;101578.78;4995232;28;20066;-78
2023/05/24 00:21:24;;;;;;;11.90;4.53;;;;;;;8.65;83.41;101582.91;4987845;28;20039;-78
2023/05/24 00:23:51;;;;;;;16.42;5.00;;;;;;;8.58;83.56;101586.13;4994539;28;20050;-78
2023/05/24 00:26:18;;;;;;;12.75;4.53;;;;;;;8.50;83.59;101578.91;4981819;28;20062;-79
2023/05/24 00:28:46;;;;;;;10.98;4.13;;;;;;;8.49;83.38;101584.25;4979994;28;20137;-80
2023/05/24 00:31:12;;;;;;;11.00;4.40;;;;;;;8.43;83.65;101576.91;4978739;28;20055;-79
2023/05/24 00:33:39;;;;;;;15.50;4.70;;;;;;;8.41;83.78;101581.41;4978540;28;20129;-79
2023/05/24 00:36:06;;;;;;;19.33;4.57;;;;;;;8.32;84.42;101586.38;4976918;28;20086;-80
2023/05/24 00:38:32;;;;;;;15.48;5.22;;;;;;;8.26;84.89;101583.38;4977715;28;20074;-78
2023/05/24 00:41:00;;;;;;;14.05;5.18;;;;;;;8.15;85.37;101589.41;4978433;28;20055;-79
2023/05/24 00:43:27;;;;;;;15.85;6.20;;;;;;;8.11;85.52;101587.97;4978046;28;20140;-79
2023/05/24 00:46:12;;;;;;;16.95;4.82;;;;;;;8.10;86.00;101588.94;4976305;28;20050;-79
2023/05/24 00:48:39;;;;;;;15.45;4.78;;;;;;;8.12;86.13;101594.84;4977611;28;20055;-80
2023/05/24 00:51:06;;;;;;;14.35;4.75;;;;;;;8.05;86.10;101591.06;4976487;28;20141;-80
2023/05/24 00:53:35;;;;;;;14.38;4.65;;;;;;;7.98;86.26;101585.50;4977751;28;20043;-81
2023/05/24 00:56:02;;;;;;;20.05;4.40;;;;;;;7.95;86.50;101582.28;4978639;28;20050;-80
2023/05/24 00:58:30;;;;;;;13.55;4.68;;;;;;;7.91;86.69;101576.47;4979439;28;20059;-81
2023/05/24 01:01:00;;;;;;;18.98;5.18;;;;;;;7.90;86.80;101577.41;4980204;28;20062;-79
2023/05/24 01:03:28;;;;;;;15.20;5.00;;;;;;;7.89;86.82;101593.19;4977914;28;20137;-80
2023/05/24 01:05:56;;;;;;;12.35;4.80;;;;;;;7.84;87.21;101595.28;4977926;28;20110;-80
2023/05/24 01:08:38;;;;;;;11.30;4.50;;;;;;;7.81;87.35;101595.53;4977739;28;20051;-80
2023/05/24 01:11:10;;;;;;;18.02;5.47;;;;;;;7.79;87.48;101593.03;4978242;28;20133;-80
2023/05/24 01:13:46;;;;;;;20.58;6.00;;;;;;;7.75;87.73;101593.38;4977586;28;20104;-79
2023/05/24 01:16:17;;;;;;;14.07;4.50;;;;;;;7.79;87.83;101592.19;4975808;28;20510;-79
2023/05/24 01:18:49;;;;;;;15.95;5.35;;;;;;;7.70;87.83;101579.84;4976153;28;20057;-79
2023/05/24 01:21:37;;;;;;;15.63;4.68;;;;;;;7.69;88.08;101593.81;4969998;28;20074;-78
2023/05/24 01:24:16;;;;;;;12.98;4.80;;;;;;;7.64;88.04;101579.34;4972742;28;20165;-80
2023/05/24 01:26:58;;;;;;;16.05;4.65;;;;;;;7.65;88.43;101581.03;4973247;28;20058;-79
2023/05/24 01:29:26;;;;;;;16.90;5.18;;;;;;;7.61;88.46;101579.59;4971001;28;20050;-80
2023/05/24 01:31:53;;;;;;;14.35;5.38;;;;;;;7.63;88.40;101579.47;4976768;28;20560;-80
2023/05/24 01:34:20;;;;;;;16.48;4.85;;;;;;;7.62;88.78;101586.47;4977293;28;20153;-80
2023/05/24 01:36:46;;;;;;;15.43;4.68;;;;;;;7.54;88.92;101588.81;4978037;28;20094;-80
2023/05/24 01:39:13;;;;;;;20.33;6.07;;;;;;;7.45;89.43;101584.28;4977996;28;20562;-78
2023/05/24 01:41:45;;;;;;;13.00;5.03;;;;;;;7.32;89.89;101573.09;4976680;28;20118;-79
2023/05/24 01:44:24;;;;;;;16.55;5.50;;;;;;;7.28;90.43;101571.66;4976972;28;20178;-79
2023/05/24 01:47:01;;;;;;;23.00;5.32;;;;;;;7.25;90.90;101572.72;4976692;28;20058;-78
2023/05/24 01:49:34;;;;;;;16.67;5.28;;;;;;;7.28;90.94;101572.50;4980030;28;20086;-79
2023/05/24 01:52:05;;;;;;;15.63;4.93;;;;;;;7.19;91.11;101577.53;4980537;28;20046;-79
2023/05/24 01:54:37;;;;;;;18.38;5.50;;;;;;;7.19;91.51;101574.94;4981124;28;20134;-78
2023/05/24 01:57:07;;;;;;;12.35;5.45;;;;;;;7.16;91.93;101575.16;4981655;28;20468;-79
2023/05/24 01:59:36;;;;;;;20.05;5.93;;;;;;;7.17;92.12;101564.63;4981941;28;20130;-79
2023/05/24 02:02:04;;;;;;;13.90;5.18;;;;;;;7.12;92.19;101564.13;4981488;28;20130;-79
2023/05/24 02:04:31;;;;;;;11.77;4.78;;;;;;;7.10;92.60;101568.59;4982196;28;20088;-79
2023/05/24 02:06:58;;;;;;;13.50;5.20;;;;;;;7.02;92.63;101559.72;4981272;28;20141;-79
2023/05/24 02:09:24;;;;;;;13.90;4.97;;;;;;;6.99;92.89;101569.41;4980511;28;20153;-79
2023/05/24 02:11:51;;;;;;;15.10;5.80;;;;;;;6.92;93.13;101578.59;4978558;28;20110;-78
2023/05/24 02:14:18;;;;;;;17.38;5.72;;;;;;;6.85;93.36;101574.75;4972474;28;20058;-80
2023/05/24 02:16:49;;;;;;;17.45;5.30;;;;;;;6.84;93.97;101567.06;4980568;28;20058;-79
2023/05/24 02:19:16;;;;;;;17.17;5.82;;;;;;;6.84;93.82;101572.25;4980596;28;20118;-80
2023/05/24 02:21:43;;;;;;;14.15;5.30;;;;;;;6.84;94.35;101572.25;4981811;28;20054;-79
2023/05/24 02:24:10;;;;;;;15.98;5.65;;;;;;;6.81;94.39;101573.31;4981180;28;20054;-80
2023/05/24 02:26:37;;;;;;;15.25;5.53;;;;;;;6.79;94.31;101589.97;4980945;28;20141;-80
2023/05/24 02:29:03;;;;;;;13.93;5.18;;;;;;;6.76;94.46;101580.59;4981855;28;20475;-79
2023/05/24 02:31:30;;;;;;;15.68;5.50;;;;;;;6.79;94.72;101580.38;4981214;28;20094;-78
2023/05/24 02:33:58;;;;;;;18.52;6.80;;;;;;;6.81;94.58;101572.47;4981607;28;20126;-80
2023/05/24 02:36:26;;;;;;;13.75;5.68;;;;;;;6.78;94.51;101577.91;4982001;28;20047;-80
2023/05/24 02:38:53;;;;;;;16.10;5.20;;;;;;;6.71;94.78;101581.88;4982865;28;20101;-78
2023/05/24 02:41:20;;;;;;;16.35;5.65;;;;;;;6.67;95.10;101583.84;4982444;28;20050;-79
2023/05/24 02:43:48;;;;;;;12.23;5.40;;;;;;;6.65;95.18;101570.13;4981072;28;20055;-80
2023/05/24 02:46:15;;;;;;;20.45;5.70;;;;;;;6.74;95.38;101576.44;4982173;28;20134;-80
2023/05/24 02:48:42;;;;;;;15.90;5.72;;;;;;;6.69;95.09;101575.94;4981718;28;20082;-80
2023/05/24 02:51:10;;;;;;;19.08;5.50;;;;;;;6.64;95.13;101578.84;4981665;28;20145;-81
2023/05/24 02:53:36;;;;;;;18.02;6.10;;;;;;;6.61;95.47;101576.50;4981188;28;20106;-78
2023/05/24 02:56:03;;;;;;;14.60;4.95;;;;;;;6.55;95.69;101566.53;4976893;28;20114;-80
2023/05/24 02:58:29;;;;;;;14.25;5.93;;;;;;;6.54;95.85;101573.50;4984578;28;20085;-79
2023/05/24 03:00:56;;;;;;;15.15;5.72;;;;;;;6.54;95.58;101580.47;4979376;28;20051;-79
2023/05/24 03:03:23;;;;;;;18.73;6.05;;;;;;;6.51;96.03;101585.88;4979775;28;20125;-80
2023/05/24 03:05:49;;;;;;;19.52;6.35;;;;;;;6.50;96.12;101573.81;4980304;28;20683;-79
2023/05/24 03:08:17;;;;;;;18.70;5.30;;;;;;;6.46;96.08;101582.75;4980514;28;20189;-79
2023/05/24 03:10:44;;;;;;;13.20;5.45;;;;;;;6.42;95.98;101583.91;4981170;28;20129;-80
2023/05/24 03:13:11;;;;;;;20.80;6.00;;;;;;;6.36;96.26;101579.13;4980313;28;20047;-80
2023/05/24 03:15:37;;;;;;;23.15;6.00;;;;;;;6.35;96.75;101572.25;4981061;28;20214;-79
2023/05/24 03:18:04;;;;;;;16.23;5.93;;;;;;;6.29;96.87;101576.13;4981462;28;20134;-79
2023/05/24 03:20:32;;;;;;;17.60;5.78;;;;;;;6.29;96.83;101576.13;4978285;28;20047;-79
2023/05/24 03:22:59;;;;;;;17.80;5.82;;;;;;;6.27;97.47;101572.78;4977852;28;20137;-77
2023/05/24 03:25:27;;;;;;;15.40;6.70;;;;;;;6.33;97.26;101573.19;4980670;28;20133;-79
2023/05/24 03:27:53;;;;;;;15.25;6.00;;;;;;;6.36;97.49;101587.75;4978739;28;20150;-79
2023/05/24 03:30:20;;;;;;;14.85;6.07;;;;;;;6.43;97.10;101588.16;4977866;28;20134;-79
2023/05/24 03:32:47;;;;;;;14.68;5.97;;;;;;;6.44;97.15;101589.84;4979521;28;20054;-78
2023/05/24 03:35:13;;;;;;;14.50;6.20;;;;;;;6.50;97.10;101589.41;4984947;28;20157;-78
2023/05/24 03:37:40;;;;;;;17.42;6.82;;;;;;;6.58;96.83;101593.16;4983846;28;20107;-78
2023/05/24 03:40:08;;;;;;;21.00;7.35;;;;;;;6.52;96.95;101590.13;4984801;28;20120;-78
2023/05/24 03:42:36;;;;;;;16.52;6.50;;;;;;;6.53;96.74;101577.03;4980409;28;20086;-78
2023/05/24 03:45:02;;;;;;;18.77;6.15;;;;;;;6.53;96.78;101589.19;4978513;28;20129;-77
2023/05/24 03:47:29;;;;;;;17.80;5.80;;;;;;;6.50;96.83;101584.22;4978439;28;20090;-79
2023/05/24 03:49:56;;;;;;;14.13;5.97;;;;;;;6.48;96.68;101586.91;4977774;28;20111;-79
2023/05/24 03:52:22;;;;;;;19.83;6.57;;;;;;;6.51;96.89;101591.91;4978914;28;20145;-79
2023/05/24 03:54:49;;;;;;;19.17;7.25;;;;;;;6.65;96.67;101588.31;4977885;28;20475;-79
2023/05/24 03:57:16;;;;;;;22.92;6.60;;;;;;;6.87;96.51;101588.47;4978225;28;20063;-79
2023/05/24 03:59:44;;;;;;;20.23;6.00;;;;;;;7.03;95.44;101575.22;4977566;28;20122;-79
2023/05/24 04:02:10;;;;;;;18.23;6.00;;;;;;;7.24;94.96;101565.00;4976972;28;20133;-79
2023/05/24 04:04:37;;;;;;;20.30;6.15;;;;;;;7.42;93.96;101563.69;4980035;28;20046;-80
2023/05/24 04:07:04;;;;;;;15.60;6.15;;;;;;;7.54;93.14;101573.19;4975832;28;20054;-80
2023/05/24 04:09:30;;;;;;;14.68;5.47;;;;;;;7.57;92.61;101566.91;4984912;28;20090;-81
2023/05/24 04:11:57;;;;;;;15.75;5.90;;;;;;;7.70;92.17;101582.44;4978439;28;20317;-81
2023/05/24 04:14:24;;;;;;;15.82;6.45;;;;;;;7.90;91.45;101581.81;4978051;28;20051;-79
2023/05/24 04:16:52;;;;;;;16.75;6.07;;;;;;;8.10;91.09;101591.53;4977777;28;20054;-80
2023/05/24 04:19:19;;;;;;;15.45;5.82;;;;;;;8.20;90.56;101574.25;4978229;28;20069;-80
2023/05/24 04:21:46;;;;;;;11.57;5.68;;;;;;;8.25;89.55;101568.69;4978018;28;20137;-80
2023/05/24 04:24:12;;;;;;;12.65;5.40;;;;;;;8.38;89.33;101569.44;4977069;28;20054;-80
2023/05/24 04:26:39;;;;;;;19.85;6.32;;;;;;;8.46;88.53;101566.25;4978920;28;20058;-80
2023/05/24 04:29:06;;;;;;;17.95;6.85;;;;;;;9.08;87.22;101574.28;4978822;28;20118;-80
2023/05/24 04:31:33;;;;;;;13.10;5.80;;;;;;;9.30;85.79;101566.38;4976739;28;20475;-79
2023/05/24 04:34:01;;;;;;;17.08;5.70;;;;;;;9.29;85.40;101553.44;4977098;28;20061;-78
2023/05/24 04:36:30;;;;;;;17.02;6.28;;;;;;;9.18;84.89;101559.53;4979475;28;20125;-80
2023/05/24 04:39:01;;;;;;;15.25;5.53;;;;;;;8.88;85.17;101562.84;4979196;28;20133;-79
2023/05/24 04:41:30;;;;;;;13.88;5.53;;;;;;;8.97;85.97;101577.78;4979530;28;20046;-80
2023/05/24 04:43:58;;;;;;;18.27;6.22;;;;;;;9.13;85.90;101571.31;4979051;28;20484;-80
2023/05/24 04:46:25;;;;;;;14.93;6.10;;;;;;;9.38;85.42;101585.84;4979145;28;20403;-79
2023/05/24 04:48:51;;;;;;;14.18;5.60;;;;;;;9.51;84.88;101583.84;4993060;28;20070;-79
2023/05/24 04:51:20;;;;;;;11.25;5.55;;;;;;;9.45;84.93;101593.00;4985344;28;20057;-79
2023/05/24 04:53:47;;;;;;;14.50;6.00;;;;;;;9.75;84.80;101594.91;4995545;28;20057;-80
2023/05/24 04:56:15;;;;;;;15.13;5.75;;;;;;;10.07;84.31;101599.22;4996000;28;20043;-80
2023/05/24 04:58:42;;;;;;;14.77;5.90;;;;;;;10.20;82.99;101597.28;4994904;28;20038;-79
2023/05/24 05:01:08;;;;;;;14.38;6.63;;;;;;;10.47;82.53;101607.97;4994173;28;20054;-79
2023/05/24 05:03:35;;;;;;;13.98;5.95;;;;;;;10.96;81.36;101609.78;4989652;28;20082;-80
2023/05/24 05:06:02;;;;;;;17.60;6.18;;;;;;;11.01;80.37;101603.31;4976516;28;20147;-78
2023/05/24 05:08:30;;;;;;;15.73;5.75;;;;;;;11.49;79.52;101606.81;4976468;28;20082;-78
2023/05/24 05:10:56;;;;;;;18.20;5.75;;;;;;;11.89;78.14;101604.03;4977347;28;20538;-78
2023/05/24 05:13:23;;;;;;;14.80;5.70;;;;;;;11.95;77.31;101607.91;4976465;28;20137;-78
2023/05/24 05:15:50;;;;;;;14.43;5.75;;;;;;;11.98;76.70;101607.63;4974496;28;20146;-77
2023/05/24 05:18:17;;;;;;;15.52;5.65;;;;;;;12.72;75.78;101606.81;4977204;28;20054;-78
2023/05/24 05:20:43;;;;;;;15.57;5.70;;;;;;;13.44;73.57;101604.13;4969832;28;20047;-78
2023/05/24 05:23:10;;;;;;;13.90;5.53;;;;;;;13.97;71.93;101605.84;4975413;28;20121;-78
2023/05/24 05:25:38;;;;;;;16.75;5.93;;;;;;;14.59;69.74;101603.91;4977673;28;20093;-78
2023/05/24 05:28:05;;;;;;;10.98;5.30;;;;;;;15.39;68.11;101599.81;4978211;28;20110;-78
2023/05/24 05:30:31;;;;;;;14.95;5.90;;;;;;;15.95;66.19;101600.00;4970012;28;20076;-78
2023/05/24 05:32:58;;;;;;;13.27;5.68;;;;;;;15.84;65.46;101590.59;4978165;28;20055;-77
2023/05/24 05:35:24;;;;;;;12.13;5.63;;;;;;;15.97;64.72;101584.81;4978514;28;20047;-79
2023/05/24 05:37:51;;;;;;;15.75;5.80;;;;;;;16.56;63.44;101583.44;4980212;28;20055;-78
2023/05/24 05:40:18;;;;;;;20.98;7.05;;;;;;;16.74;62.91;101578.78;4979842;28;20082;-79
2023/05/24 05:42:46;;;;;;;16.13;5.90;;;;;;;17.12;61.86;101576.22;4972953;28;20077;-79
2023/05/24 05:45:12;;;;;;;14.77;6.38;;;;;;;17.29;61.54;101580.41;4982061;28;20057;-78
2023/05/24 05:47:39;;;;;;;18.48;7.13;;;;;;;16.72;61.88;101583.41;4976409;28;20342;-78
2023/05/24 05:50:07;;;;;;;21.33;7.45;;;;;;;16.73;62.17;101576.31;4982929;28;20051;-77
2023/05/24 05:52:34;;;;;;;23.10;7.05;;;;;;;17.21;61.00;101573.34;4982453;28;20562;-79
2023/05/24 05:55:00;;;;;;;25.58;8.10;;;;;;;16.99;61.36;101578.66;4982443;28;20395;-78
2023/05/24 05:57:27;;;;;;;23.70;7.40;;;;;;;16.91;61.39;101577.69;4982446;28;20121;-79
2023/05/24 05:59:55;;;;;;;;;;;;;;;17.34;60.82;101569.31;4981877;28;20158;-78
2023/05/24 06:02:22;;;;;;;;;;;;;;;17.74;60.01;101568.97;4980110;28;20125;-78
2023/05/24 06:04:49;;;;;;;;;;;;;;;17.79;60.40;101571.91;4984309;28;20482;-78
2023/05/24 06:07:16;;;;;;;;;;;;;;;17.73;59.50;101566.50;4984638;28;20125;-80
2023/05/24 06:09:42;;;;;;;;;;;;;;;17.75;59.86;101567.97;4981639;28;20076;-79
2023/05/24 06:12:08;;;;;;;;;;;;;;;17.84;60.05;101574.84;4979699;28;20127;-78
2023/05/24 06:14:37;;;;;;;;;;;;;;;17.86;59.27;101566.72;4980926;28;19992;-81
2023/05/24 06:17:05;;;;;;;;;;;;;;;17.57;59.60;101567.44;4980192;28;20097;-81
2023/05/24 06:19:31;;;;;;;;;;;;;;;17.51;59.87;101568.97;4980057;28;20153;-79
2023/05/24 06:21:58;;;;;;;;;;;;;;;16.54;62.07;101575.69;4982096;28;20104;-80
2023/05/24 06:24:24;;;;;;;;;;;;;;;17.20;61.28;101573.53;4983490;28;20179;-79
2023/05/24 06:26:51;;;;;;;;;;;;;;;15.54;63.57;101571.81;4983012;28;20447;-81
2023/05/24 06:29:19;;;;;;;;;;;;;;;14.70;66.31;101587.81;4981599;28;20152;-81
2023/05/24 06:31:46;;;;;;;;;;;;;;;16.17;64.25;101572.88;4981771;28;20050;-81
2023/05/24 06:34:15;;;;;;;;;;;;;;;16.84;62.86;101560.06;4983725;28;20039;-81
2023/05/24 06:36:42;;;;;;;;;;;;;;;17.34;62.22;101567.47;4983333;28;19933;-81
2023/05/24 06:39:09;;;;;;;;;;;;;;;16.78;62.84;101566.03;4978566;28;20016;-81
2023/05/24 06:41:35;;;;;;;;;;;;;;;17.42;61.50;101559.47;4978000;28;19922;-80
2023/05/24 06:44:02;;;;;;;;;;;;;;;17.03;61.32;101556.94;4976196;28;19926;-79
2023/05/24 06:46:28;;;;;;;;;;;;;;;18.30;59.98;101561.41;4979629;28;19937;-80
2023/05/24 06:48:55;;;;;;;;;;;;;;;17.83;59.48;101556.47;4982167;28;19996;-78
2023/05/24 06:54:42;;;;;;;;;;;;;;;16.13;63.19;101585.56;4967173;28;19961;-81
2023/05/24 07:02:35;;;;;;;;;;;;;;;15.19;66.52;101604.56;4985270;28;19961;-80
2023/05/24 07:05:02;;;;;;;25.38;7.35;;;;;;;14.85;67.37;101596.75;4982437;28;19961;-81
2023/05/24 07:07:28;;;;;;;25.85;7.43;;;;;;;15.60;66.96;101597.53;4984456;28;20042;-81
2023/05/24 07:09:56;;;;;;;25.85;7.53;;;;;;;17.68;63.20;101577.63;4985967;28;20081;-81
2023/05/24 07:12:23;;;;;;;23.98;7.25;;;;;;;17.59;60.25;101562.78;4984129;28;20630;-80
2023/05/24 07:14:50;;;;;;;16.40;6.93;;;;;;;17.54;61.90;101576.56;4977684;28;20051;-81
2023/05/24 07:17:17;;;;;;;23.77;6.65;;;;;;;18.70;60.19;101577.84;4981809;28;20054;-79
2023/05/24 07:19:43;;;;;;;25.65;8.48;;;;;;;19.14;58.52;101588.31;4984328;28;20066;-79
2023/05/24 07:22:10;;;;;;;21.20;9.70;;;;;;;18.11;55.94;101570.72;4977014;28;20125;-79
2023/05/24 07:24:36;;;;;;;19.92;8.35;;;;;;;17.58;58.01;101569.06;4986633;28;20043;-79
2023/05/24 07:27:05;;;;;;;24.85;9.88;;;;;;;17.54;58.14;101573.09;4983465;28;20118;-79
2023/05/24 07:29:32;;;;;;;23.13;11.30;;;;;;;16.20;60.89;101586.56;4979727;28;20610;-80
2023/05/24 07:31:59;;;;;;;36.25;10.98;;;;;;;17.30;59.91;101591.81;4985196;28;20131;-78
2023/05/24 07:34:28;;;;;;;53.95;16.50;;;;;;;16.84;59.15;101582.03;4985670;28;20089;-80
2023/05/24 07:36:55;;;;;;;25.40;10.85;;;;;;;16.60;60.63;101590.03;4985226;28;20057;-79
2023/05/24 07:39:22;;;;;;;25.90;10.55;;;;;;;17.51;59.63;101584.84;4983003;28;20061;-78
2023/05/24 07:41:49;;;;;;;26.20;10.73;;;;;;;18.09;58.42;101588.63;4984607;28;20051;-79
2023/05/24 07:44:19;;;;;;;24.92;10.45;;;;;;;19.63;56.12;101595.50;4984926;28;20046;-79
2023/05/24 07:46:46;;;;;;;22.40;10.40;;;;;;;19.79;54.48;101587.28;4984193;28;20371;-79
2023/05/24 07:49:12;;;;;;;20.63;10.27;;;;;;;18.73;54.62;101582.78;4984597;28;20106;-79
2023/05/24 07:51:39;;;;;;;22.90;10.88;;;;;;;18.52;56.23;101588.78;4982012;28;20122;-78
2023/05/24 07:54:06;;;;;;;23.33;10.77;;;;;;;19.18;54.42;101579.78;4974279;28;20082;-78
2023/05/24 07:56:33;;;;;;;20.48;11.35;;;;;;;18.65;54.69;101589.00;4981941;28;20118;-80
2023/05/24 07:59:03;;;;;;;31.20;10.60;;;;;;;19.01;55.75;101582.84;4984029;28;20070;-78
2023/05/24 08:01:31;;;;;;;27.35;10.85;;;;;;;16.84;58.66;101582.03;4983687;28;20082;-78
2023/05/24 08:03:57;;;;;;;22.95;10.23;;;;;;;16.71;59.01;101587.03;4982230;28;20083;-79
2023/05/24 08:06:24;;;;;;;26.35;10.88;;;;;;;16.37;60.58;101589.16;4983716;28;20051;-81
2023/05/24 08:08:51;;;;;;;25.27;11.82;;;;;;;16.44;61.22;101595.41;4985039;28;20150;-80
2023/05/24 08:11:17;;;;;;;23.35;11.60;;;;;;;16.49;61.33;101580.69;4983897;28;20074;-79
2023/05/24 08:13:44;;;;;;;25.30;11.30;;;;;;;18.19;58.96;101581.25;4981993;28;20503;-79
2023/05/24 08:16:11;;;;;;;26.92;12.38;;;;;;;18.63;56.60;101568.97;4980028;28;20431;-80
2023/05/24 08:18:39;;;;;;;20.23;11.05;;;;;;;20.20;54.81;101574.03;4980868;28;20114;-78
2023/05/24 08:21:06;;;;;;;28.00;12.65;;;;;;;18.79;53.82;101572.25;4977734;28;20047;-79
2023/05/24 08:23:33;;;;;;;24.92;12.73;;;;;;;18.18;55.59;101581.41;4981881;28;20057;-80
2023/05/24 08:26:00;;;;;;;21.98;13.02;;;;;;;17.69;56.60;101581.09;4982099;28;20046;-79
2023/05/24 08:28:26;;;;;;;21.30;13.48;;;;;;;17.23;57.67;101583.75;4981703;28;20129;-77
2023/05/24 08:30:53;;;;;;;22.23;12.85;;;;;;;16.28;60.03;101596.28;4978325;28;20061;-79
2023/05/24 08:33:21;;;;;;;24.67;12.90;;;;;;;16.57;60.36;101587.72;4978376;28;20081;-79
2023/05/24 08:35:49;;;;;;;26.70;12.50;;;;;;;16.71;59.73;101592.34;4976612;28;20043;-78
2023/05/24 08:38:16;;;;;;;21.60;11.82;;;;;;;16.67;59.93;101590.19;4980142;28;20047;-78
2023/05/24 08:40:43;;;;;;;25.60;12.80;;;;;;;16.53;59.54;101586.47;4978873;28;20139;-78
2023/05/24 08:43:11;;;;;;;20.77;11.48;;;;;;;15.96;61.40;101593.72;4980270;28;20114;-79
2023/05/24 08:45:39;;;;;;;39.33;22.45;;;;;;;15.39;62.73;101605.09;4979722;28;20074;-76
2023/05/24 08:48:07;;;;;;;25.98;14.40;;;;;;;15.17;63.79;101609.19;4976343;28;20502;-78
2023/05/24 08:50:34;;;;;;;26.58;13.55;;;;;;;14.70;64.69;101619.41;4976471;28;20078;-81
2023/05/24 08:53:05;;;;;;;22.58;11.35;;;;;;;14.57;65.90;101621.69;4976341;28;20083;-79
2023/05/24 08:55:32;;;;;;;25.63;10.90;;;;;;;14.46;66.45;101621.97;4972235;28;20518;-79
2023/05/24 08:58:00;;;;;;;19.38;9.93;;;;;;;14.50;67.19;101620.66;4980144;28;20125;-78
2023/05/24 09:00:27;;;;;;;20.48;10.13;;;;;;;14.60;66.66;101598.50;4975192;28;20133;-80
2023/05/24 09:02:54;;;;;;;25.02;9.82;;;;;;;14.91;66.02;101596.13;4983460;28;20046;-81
2023/05/24 09:05:21;;;;;;;21.25;9.35;;;;;;;16.09;64.26;101586.09;4978292;28;20083;-79
2023/05/24 09:07:49;;;;;;;20.55;8.90;;;;;;;16.38;63.04;101574.94;4978943;28;20050;-79
2023/05/24 09:10:20;;;;;;;20.73;8.93;;;;;;;16.50;61.07;101557.75;4978516;28;20563;-81
2023/05/24 09:12:51;;;;;;;24.65;9.18;;;;;;;16.75;61.56;101566.38;4983831;28;20050;-80
2023/05/24 09:15:18;;;;;;;24.83;8.60;;;;;;;16.75;61.16;101566.38;4977415;28;20081;-80
2023/05/24 09:17:45;;;;;;;23.63;9.77;;;;;;;16.43;61.79;101568.16;4980603;28;20047;-78
2023/05/24 09:20:12;;;;;;;20.55;9.60;;;;;;;16.10;62.27;101582.44;4976584;28;20133;-81
2023/05/24 09:22:42;;;;;;;21.17;8.70;;;;;;;15.54;63.91;101582.34;4971603;28;20085;-79
2023/05/24 09:25:12;;;;;;;21.48;9.48;;;;;;;15.46;64.01;101584.16;4978055;28;20138;-78
2023/05/24 09:27:41;;;;;;;26.60;9.50;;;;;;;15.59;64.64;101585.38;4982330;28;20055;-79
2023/05/24 09:30:09;;;;;;;26.42;10.48;;;;;;;15.31;64.50;101576.06;4983842;28;20093;-79
2023/05/24 09:32:36;;;;;;;22.10;9.77;;;;;;;15.88;63.48;101568.16;4982435;28;20146;-80
2023/05/24 09:35:08;;;;;;;21.95;10.68;;;;;;;15.66;63.06;101564.38;4981561;28;20499;-81
2023/05/24 09:37:37;;;;;;;23.60;11.13;;;;;;;15.55;62.75;101549.72;4980138;28;20058;-81
2023/05/24 09:40:07;;;;;;;23.58;10.60;;;;;;;15.59;62.76;101550.25;4976092;28;20053;-80
2023/05/24 09:42:34;;;;;;;25.00;10.27;;;;;;;16.03;62.16;101555.09;4974094;28;20071;-79
2023/05/24 09:45:06;;;;;;;20.55;9.80;;;;;;;16.25;61.87;101549.06;4971635;28;20076;-79
2023/05/24 09:47:33;;;;;;;18.40;8.67;;;;;;;16.57;61.03;101548.94;4975903;28;20534;-81
2023/05/24 09:50:01;;;;;;;22.00;9.32;;;;;;;16.50;60.88;101544.53;4974430;28;20106;-78
2023/05/24 09:52:28;;;;;;;21.85;8.65;;;;;;;16.86;61.01;101547.50;4976199;28;20047;-81
2023/05/24 09:54:55;;;;;;;23.67;8.15;;;;;;;16.56;60.86;101554.38;4978440;28;20043;-81
2023/05/24 09:57:22;;;;;;;19.05;8.32;;;;;;;16.49;60.63;101550.81;4980572;28;20081;-82
2023/05/24 09:59:49;;;;;;;20.08;8.25;;;;;;;16.05;61.70;101551.31;4980531;28;20038;-81
2023/05/24 10:02:19;;;;;;;19.40;8.60;;;;;;;16.63;61.55;101546.59;4981617;28;20385;-80
2023/05/24 10:04:46;;;;;;;21.73;8.23;;;;;;;17.06;60.87;101546.00;4980529;28;20462;-80
2023/05/24 10:07:13;;;;;;;18.77;8.15;;;;;;;17.51;59.77;101537.22;4966898;28;20047;-79
2023/05/24 10:09:40;;;;;;;25.08;9.80;;;;;;;18.20;58.24;101543.16;4976175;28;20054;-80
2023/05/24 10:12:08;;;;;;;16.35;8.48;;;;;;;17.77;57.96;101536.84;4979735;28;20380;-79
2023/05/24 10:14:36;;;;;;;16.15;8.95;;;;;;;17.50;58.47;101529.44;4977156;28;20138;-80
2023/05/24 10:17:04;;;;;;;18.35;9.18;;;;;;;16.42;59.72;101537.47;4982150;28;20502;-81
2023/05/24 10:19:32;;;;;;;17.63;7.80;;;;;;;16.66;60.97;101541.81;4975213;28;20361;-81
2023/05/24 10:22:00;;;;;;;14.68;7.65;;;;;;;16.60;61.09;101543.28;4970476;28;20086;-81
2023/05/24 10:24:35;;;;;;;21.40;8.73;;;;;;;17.24;61.12;101540.44;4982659;28;20059;-81
2023/05/24 10:27:07;;;;;;;18.23;8.75;;;;;;;18.26;58.60;101533.66;4981182;28;20050;-80
2023/05/24 10:29:45;;;;;;;21.65;9.32;;;;;;;17.99;56.49;101529.81;4982131;28;20050;-80
2023/05/24 10:32:15;;;;;;;20.27;8.95;;;;;;;18.20;56.76;101537.84;4980125;28;20537;-81
2023/05/24 10:34:43;;;;;;;20.30;7.70;;;;;;;17.54;57.18;101531.56;4980787;28;20089;-81
2023/05/24 10:37:10;;;;;;;22.85;8.02;;;;;;;17.48;58.40;101545.53;4980144;28;20417;-80
2023/05/24 10:39:37;;;;;;;17.38;5.97;;;;;;;17.33;58.99;101544.66;4979287;28;20085;-78
2023/05/24 10:42:05;;;;;;;17.85;5.78;;;;;;;16.81;60.20;101561.22;4976135;28;20125;-80
2023/05/24 10:44:32;;;;;;;21.25;6.72;;;;;;;16.67;60.94;101554.03;4976061;28;20050;-79
2023/05/24 10:47:09;;;;;;;23.23;7.32;;;;;;;17.28;59.81;101541.72;4971401;28;20141;-78
2023/05/24 10:49:40;;;;;;;13.27;7.15;;;;;;;16.99;60.43;101546.91;4985483;28;20058;-79
2023/05/24 10:52:12;;;;;;;21.27;6.45;;;;;;;16.56;60.61;101551.75;4983085;28;20085;-79
2023/05/24 10:54:40;;;;;;;19.00;6.45;;;;;;;17.10;60.49;101543.84;4988047;28;20097;-80
2023/05/24 10:57:07;;;;;;;15.52;7.20;;;;;;;17.17;59.65;101539.50;4983781;28;20043;-74
2023/05/24 10:59:37;;;;;;;19.33;7.53;;;;;;;17.02;58.99;101528.84;4983435;28;20471;-81
2023/05/24 11:02:08;;;;;;;16.95;7.20;;;;;;;17.11;58.98;101519.03;4984357;28;20054;-81
2023/05/24 11:04:38;;;;;;;16.30;7.10;;;;;;;17.44;59.38;101535.50;4983270;28;20047;-80
2023/05/24 11:07:08;;;;;;;17.90;7.65;;;;;;;17.14;59.18;101522.16;4987399;28;20043;-81
2023/05/24 11:09:36;;;;;;;16.45;7.38;;;;;;;17.37;59.16;101529.25;4984107;28;20047;-79
2023/05/24 11:12:07;;;;;;;20.60;7.25;;;;;;;17.77;57.94;101514.84;4981414;28;20057;-79
2023/05/24 11:14:37;;;;;;;18.58;7.20;;;;;;;17.71;57.87;101519.03;4975452;28;20050;-80
2023/05/24 11:17:04;;;;;;;15.77;6.78;;;;;;;17.96;57.69;101518.78;4978389;28;20039;-79
2023/05/24 11:19:33;;;;;;;13.63;6.32;;;;;;;17.66;56.80;101507.34;4975185;28;20290;-80
2023/05/24 11:22:02;;;;;;;14.98;6.20;;;;;;;17.02;57.42;101520.09;4989452;28;20035;-77
2023/05/24 11:24:32;;;;;;;12.60;5.78;;;;;;;17.32;58.11;101524.50;4993313;28;20098;-79
2023/05/24 11:27:02;;;;;;;13.85;6.07;;;;;;;17.70;57.56;101519.22;4996940;28;20054;-80
2023/05/24 11:29:29;;;;;;;11.90;5.95;;;;;;;18.09;57.38;101519.78;4997262;28;20038;-80
2023/05/24 11:32:01;;;;;;;14.35;6.20;;;;;;;18.35;56.38;101521.13;4995910;28;20082;-80
2023/05/24 11:34:31;;;;;;;17.45;7.28;;;;;;;18.34;56.17;101508.88;4995659;28;20038;-80
2023/05/24 11:36:59;;;;;;;17.60;7.40;;;;;;;18.59;55.60;101510.19;4993580;28;20051;-80